Time;durP1;ratioP1;P1;durP2;ratioP2;P2;SDS_P1;SDS_P2;PMS_P1;PMS_P2;Temp;Humidity;BMP_temperature;BMP_pressure;BME280_temperature;BME280_humidity;BME280_pressure;Samples;Min_cycle;Max_cycle;Signal;HPM_P1;HPM_P2
2023/02/09 00:02:21;;;;;;;20.07;13.37;;;-1.40;99.90;;;;;;5031440;28;20206;-83
2023/02/09 00:04:47;;;;;;;20.90;14.30;;;-1.50;99.90;;;;;;5032480;28;20647;-85
2023/02/09 00:07:12;;;;;;;21.67;13.17;;;-1.50;99.90;;;;;;5029100;28;20202;-84
2023/02/09 00:09:38;;;;;;;18.03;12.87;;;-1.20;99.90;;;;;;5048264;28;20274;-84
2023/02/09 00:14:47;;;;;;;20.42;14.20;;;-1.50;99.90;;;;;;5046115;28;20644;-84
2023/02/09 00:17:13;;;;;;;20.90;14.40;;;-1.00;99.90;;;;;;5050811;28;20184;-84
2023/02/09 00:19:38;;;;;;;22.00;13.07;;;-1.30;99.90;;;;;;5034673;28;20758;-83
2023/02/09 00:22:04;;;;;;;20.40;13.03;;;-1.40;99.90;;;;;;5029574;28;20296;-83
2023/02/09 00:24:30;;;;;;;23.90;14.77;;;-1.20;99.90;;;;;;5025867;28;20186;-85
2023/02/09 00:26:55;;;;;;;21.17;14.83;;;-1.50;99.90;;;;;;5030600;28;20195;-85
2023/02/09 00:29:22;;;;;;;20.07;13.40;;;-1.50;99.90;;;;;;5035904;28;20284;-84
2023/02/09 00:31:48;;;;;;;20.20;13.65;;;-1.60;99.90;;;;;;5029265;28;20209;-84
2023/02/09 00:34:15;;;;;;;21.80;14.55;;;-1.90;99.90;;;;;;5031935;28;20186;-84
2023/02/09 00:36:40;;;;;;;18.20;13.02;;;-1.80;99.90;;;;;;5031947;28;20186;-85
2023/02/09 00:39:07;;;;;;;22.70;12.87;;;-1.40;99.90;;;;;;5029175;28;20181;-84
2023/02/09 00:44:17;;;;;;;21.80;13.68;;;-1.80;99.90;;;;;;5045775;28;20201;-84
2023/02/09 00:46:42;;;;;;;23.17;12.90;;;-1.10;99.90;;;;;;5031166;28;20196;-84
2023/02/09 00:49:08;;;;;;;20.90;14.03;;;-1.60;99.90;;;;;;5029153;28;20176;-84
2023/02/09 00:51:33;;;;;;;21.23;13.80;;;-0.90;99.90;;;;;;5026275;28;20236;-84
2023/02/09 00:53:59;;;;;;;18.90;12.10;;;-1.90;99.90;;;;;;5028421;28;20222;-84
2023/02/09 00:56:24;;;;;;;17.17;11.63;;;-1.80;99.90;;;;;;5044469;28;20224;-84
2023/02/09 00:58:50;;;;;;;18.77;12.40;;;-1.70;99.90;;;;;;5026547;28;20191;-84
2023/02/09 01:01:15;;;;;;;21.53;13.23;;;-1.60;99.90;;;;;;5031338;28;20221;-84
2023/02/09 01:03:42;;;;;;;20.67;13.47;;;-1.90;99.90;;;;;;5033863;28;20192;-84
2023/02/09 01:06:08;;;;;;;19.45;12.18;;;-1.90;99.90;;;;;;5031429;28;20193;-84
2023/02/09 01:08:34;;;;;;;21.75;13.75;;;-2.10;99.90;;;;;;5032521;28;20608;-85
2023/02/09 01:11:05;;;;;;;17.77;12.40;;;-2.10;99.90;;;;;;5033476;28;20204;-85
2023/02/09 01:13:31;;;;;;;19.40;12.50;;;-2.10;99.90;;;;;;5036684;28;20465;-84
2023/02/09 01:15:56;;;;;;;18.70;12.00;;;-1.30;99.90;;;;;;5028348;28;20542;-85
2023/02/09 01:18:22;;;;;;;20.20;12.40;;;-1.90;99.90;;;;;;5029270;28;20623;-85
2023/02/09 01:20:47;;;;;;;20.90;12.07;;;-1.90;99.90;;;;;;5030770;28;20203;-84
2023/02/09 01:23:13;;;;;;;18.40;13.67;;;-2.00;99.90;;;;;;5027519;28;20189;-85
2023/02/09 01:25:38;;;;;;;17.70;12.47;;;-1.70;99.90;;;;;;5031461;28;20388;-84
2023/02/09 01:28:04;;;;;;;19.63;13.50;;;-1.90;99.90;;;;;;5029659;28;20274;-84
2023/02/09 01:30:29;;;;;;;21.43;13.43;;;-2.00;99.90;;;;;;5029605;28;20229;-86
2023/02/09 01:32:55;;;;;;;23.37;14.00;;;-2.40;99.90;;;;;;5022686;28;20749;-84
2023/02/09 01:35:20;;;;;;;17.93;11.70;;;-2.10;99.90;;;;;;5027811;28;20185;-85
2023/02/09 01:37:46;;;;;;;24.30;12.80;;;-2.50;99.90;;;;;;5030998;28;20240;-85
2023/02/09 01:40:11;;;;;;;19.70;12.63;;;-2.40;99.90;;;;;;5033940;28;20186;-85
2023/02/09 01:42:37;;;;;;;19.50;13.07;;;-2.40;99.90;;;;;;5031036;28;20192;-85
2023/02/09 01:45:20;;;;;;;19.38;11.50;;;-2.10;99.90;;;;;;5034054;28;20641;-84
2023/02/09 01:47:54;;;;;;;20.85;13.48;;;-2.10;99.90;;;;;;5024620;28;20196;-84
2023/02/09 01:50:20;;;;;;;24.30;13.98;;;-2.40;99.90;;;;;;5029680;28;20191;-85
2023/02/09 01:52:48;;;;;;;20.42;11.27;;;-1.80;99.90;;;;;;5026381;28;20202;-85
2023/02/09 01:55:19;;;;;;;16.23;11.30;;;-2.40;99.90;;;;;;5027029;28;20243;-84
2023/02/09 01:57:56;;;;;;;20.23;13.90;;;-2.00;99.90;;;;;;5045907;28;20182;-85
2023/02/09 02:00:22;;;;;;;22.02;12.57;;;-2.30;99.90;;;;;;5026025;28;20225;-85
2023/02/09 02:02:55;;;;;;;19.40;11.27;;;-2.20;99.90;;;;;;5028114;28;20269;-84
2023/02/09 02:05:22;;;;;;;20.05;12.55;;;-2.10;99.90;;;;;;5025818;28;20282;-85
2023/02/09 02:07:59;;;;;;;20.58;12.88;;;-2.20;99.90;;;;;;5032704;28;20214;-85
2023/02/09 02:10:24;;;;;;;25.38;13.23;;;-2.20;99.90;;;;;;5030421;28;20190;-85
2023/02/09 02:12:52;;;;;;;18.93;13.27;;;-1.90;99.90;;;;;;5028683;28;20266;-85
2023/02/09 02:15:18;;;;;;;23.83;15.13;;;-1.80;99.90;;;;;;5041783;28;20187;-84
2023/02/09 02:17:53;;;;;;;18.37;12.37;;;-2.20;99.90;;;;;;5033717;28;20653;-84
2023/02/09 02:21:04;;;;;;;18.20;11.98;;;-2.40;99.90;;;;;;5026469;28;20244;-85
2023/02/09 02:23:36;;;;;;;23.10;13.30;;;-2.60;99.90;;;;;;5028615;28;20182;-85
2023/02/09 02:26:31;;;;;;;20.98;14.07;;;-2.60;99.90;;;;;;5047661;28;20275;-85
2023/02/09 02:29:30;;;;;;;24.15;13.20;;;-2.60;99.90;;;;;;5028228;28;20595;-83
2023/02/09 02:32:26;;;;;;;19.73;13.18;;;-2.60;99.90;;;;;;5026489;28;20217;-84
2023/02/09 02:35:00;;;;;;;18.42;12.90;;;-2.50;99.90;;;;;;5028972;28;20191;-85
2023/02/09 02:37:38;;;;;;;20.63;12.60;;;-2.20;99.90;;;;;;5025937;28;20225;-85
2023/02/09 02:40:45;;;;;;;21.90;13.65;;;-2.70;99.90;;;;;;5023535;28;20641;-85
2023/02/09 02:43:17;;;;;;;19.95;13.60;;;-2.60;99.90;;;;;;5023963;28;20744;-84
2023/02/09 02:45:57;;;;;;;23.40;14.40;;;-2.60;99.90;;;;;;5026156;28;20182;-84
2023/02/09 02:48:38;;;;;;;17.98;12.00;;;-2.60;99.90;;;;;;5023268;28;20299;-85
2023/02/09 02:51:09;;;;;;;23.08;14.20;;;-2.60;99.90;;;;;;5032939;28;20226;-85
2023/02/09 02:53:36;;;;;;;21.05;14.15;;;-2.60;99.90;;;;;;5023719;28;20269;-84
2023/02/09 02:56:09;;;;;;;20.08;14.00;;;-2.40;99.90;;;;;;5031799;28;20226;-84
2023/02/09 02:58:37;;;;;;;19.98;12.98;;;-2.10;99.90;;;;;;5026038;28;20188;-84
2023/02/09 03:01:06;;;;;;;20.30;13.68;;;-2.70;99.90;;;;;;5034175;28;20217;-84
2023/02/09 03:03:34;;;;;;;20.15;13.20;;;-3.00;99.90;;;;;;5030091;28;20445;-84
2023/02/09 03:06:04;;;;;;;23.30;14.40;;;-2.70;99.90;;;;;;5029359;28;20190;-85
2023/02/09 03:08:29;;;;;;;22.42;14.50;;;-2.60;99.90;;;;;;5024693;28;20218;-84
2023/02/09 03:10:55;;;;;;;19.37;12.90;;;-2.70;99.90;;;;;;5029246;28;20202;-84
2023/02/09 03:13:42;;;;;;;21.43;14.60;;;-2.50;99.90;;;;;;5030034;28;20705;-84
2023/02/09 03:16:17;;;;;;;22.40;15.07;;;-2.50;99.90;;;;;;5029952;28;20975;-85
2023/02/09 03:18:58;;;;;;;21.10;13.93;;;-2.50;99.90;;;;;;5028378;28;20654;-85
2023/02/09 03:21:59;;;;;;;28.10;14.40;;;-2.40;99.90;;;;;;5028983;28;20252;-85
2023/02/09 03:24:53;;;;;;;23.80;14.07;;;-2.40;99.90;;;;;;5023174;28;20182;-85
2023/02/09 03:27:26;;;;;;;19.83;13.20;;;-2.60;99.90;;;;;;5036481;28;20182;-84
2023/02/09 03:29:56;;;;;;;22.63;13.68;;;-2.70;99.90;;;;;;5034404;28;20189;-85
2023/02/09 03:32:22;;;;;;;22.83;13.63;;;-2.60;99.90;;;;;;5030761;28;20300;-84
2023/02/09 03:34:48;;;;;;;23.67;15.55;;;-2.70;99.90;;;;;;5029266;28;20181;-84
2023/02/09 03:37:14;;;;;;;21.10;13.70;;;-2.80;99.90;;;;;;5030812;28;20178;-84
2023/02/09 03:39:39;;;;;;;21.83;13.10;;;-2.70;99.90;;;;;;5036508;28;20864;-84
2023/02/09 03:42:05;;;;;;;21.47;13.50;;;-2.70;99.90;;;;;;5033201;28;20328;-84
2023/02/09 03:44:31;;;;;;;25.50;14.40;;;-2.70;99.90;;;;;;5045746;28;20241;-83
2023/02/09 03:46:59;;;;;;;22.33;14.63;;;-2.70;99.90;;;;;;5048280;28;20460;-85
2023/02/09 03:49:27;;;;;;;21.20;14.85;;;-2.60;99.90;;;;;;5028301;28;20259;-83
2023/02/09 03:51:53;;;;;;;21.00;14.32;;;-2.80;99.90;;;;;;5033883;28;20345;-85
2023/02/09 03:54:20;;;;;;;21.20;13.30;;;-2.30;99.90;;;;;;5032255;28;20210;-85
2023/02/09 03:57:10;;;;;;;20.85;14.30;;;-2.80;99.90;;;;;;5035195;28;20206;-84
2023/02/09 03:59:39;;;;;;;23.92;15.30;;;-2.80;99.90;;;;;;5041156;28;20180;-84
2023/02/09 04:02:06;;;;;;;21.70;14.00;;;-3.40;99.90;;;;;;5032900;28;20213;-86
2023/02/09 04:04:32;;;;;;;23.25;13.90;;;-3.50;99.90;;;;;;5033925;28;20196;-86
2023/02/09 04:06:57;;;;;;;20.60;13.87;;;-2.80;99.90;;;;;;5035299;28;20192;-84
2023/02/09 04:09:25;;;;;;;21.47;14.53;;;-2.80;99.90;;;;;;5049876;28;20178;-86
2023/02/09 04:11:50;;;;;;;24.70;15.25;;;-2.50;99.90;;;;;;5035330;28;20241;-86
2023/02/09 04:14:16;;;;;;;26.60;15.30;;;-2.80;99.90;;;;;;5029052;28;20662;-87
2023/02/09 04:16:42;;;;;;;23.27;15.03;;;-2.20;99.90;;;;;;5034866;28;20178;-86
2023/02/09 04:19:10;;;;;;;21.27;14.80;;;-2.80;99.90;;;;;;5025562;28;20467;-86
2023/02/09 04:21:36;;;;;;;25.05;14.50;;;-2.90;99.90;;;;;;5029243;28;20194;-86
2023/02/09 04:24:02;;;;;;;25.35;15.80;;;-2.80;99.90;;;;;;5033851;28;20182;-86
2023/02/09 04:26:28;;;;;;;20.60;14.23;;;-2.90;99.90;;;;;;5035136;28;20269;-88
2023/02/09 04:28:53;;;;;;;22.50;14.10;;;-3.60;99.90;;;;;;5032817;28;20452;-87
2023/02/09 04:31:19;;;;;;;21.40;13.80;;;-2.50;99.90;;;;;;5030881;28;20682;-86
2023/02/09 04:33:44;;;;;;;21.70;14.00;;;-2.90;99.90;;;;;;5033911;28;20662;-87
2023/02/09 04:36:10;;;;;;;22.30;15.50;;;-2.50;99.90;;;;;;5033474;28;20489;-86
2023/02/09 04:38:36;;;;;;;26.27;16.38;;;-3.00;99.90;;;;;;5027756;28;20765;-87
2023/02/09 04:41:03;;;;;;;23.77;15.90;;;-2.80;99.90;;;;;;5030497;28;20206;-87
2023/02/09 04:43:29;;;;;;;20.52;13.68;;;-3.10;99.90;;;;;;5024736;28;20186;-86
2023/02/09 04:45:55;;;;;;;22.33;13.40;;;-2.50;99.90;;;;;;5031031;28;20202;-85
2023/02/09 04:48:22;;;;;;;21.40;14.83;;;-2.90;99.90;;;;;;5050675;28;20452;-86
2023/02/09 04:50:48;;;;;;;22.80;15.02;;;-2.50;99.90;;;;;;5026774;28;20203;-86
2023/02/09 04:53:14;;;;;;;19.73;14.70;;;-2.50;99.90;;;;;;5030000;28;20210;-86
2023/02/09 04:55:42;;;;;;;25.08;15.68;;;-2.90;99.90;;;;;;5028943;28;20634;-85
2023/02/09 05:00:58;;;;;;;24.83;16.10;;;-3.30;99.90;;;;;;5051754;28;20743;-87
2023/02/09 05:03:24;;;;;;;22.55;15.35;;;-3.30;99.90;;;;;;5047389;28;20179;-86
2023/02/09 05:05:56;;;;;;;23.23;16.25;;;-2.80;99.90;;;;;;5046679;28;20272;-87
2023/02/09 05:08:22;;;;;;;25.45;15.25;;;-3.30;99.90;;;;;;5025060;28;20217;-86
2023/02/09 05:10:52;;;;;;;26.92;16.60;;;-3.10;99.90;;;;;;5031063;28;20207;-86
2023/02/09 05:13:19;;;;;;;24.38;15.70;;;-2.80;99.90;;;;;;5025024;28;20777;-86
2023/02/09 05:15:45;;;;;;;24.58;15.60;;;-2.60;99.90;;;;;;5028364;28;20278;-88
2023/02/09 05:18:12;;;;;;;24.77;15.67;;;-3.50;99.90;;;;;;5029875;28;20265;-87
2023/02/09 05:20:38;;;;;;;27.67;16.10;;;-3.00;99.90;;;;;;5025228;28;21000;-85
2023/02/09 05:23:04;;;;;;;26.33;15.70;;;-3.00;99.90;;;;;;5026554;28;20221;-86
2023/02/09 05:25:29;;;;;;;23.48;15.70;;;-2.90;99.90;;;;;;5043849;28;20877;-86
2023/02/09 05:27:55;;;;;;;24.50;16.20;;;-2.80;99.90;;;;;;5028803;28;20198;-87
2023/02/09 05:30:20;;;;;;;22.73;16.37;;;-2.80;99.90;;;;;;5030605;28;20195;-86
2023/02/09 05:32:46;;;;;;;23.33;15.43;;;-3.00;99.90;;;;;;5029860;28;20202;-86
2023/02/09 05:35:12;;;;;;;27.60;17.30;;;-3.20;99.90;;;;;;5027482;28;20182;-86
2023/02/09 05:37:37;;;;;;;27.23;16.27;;;-3.60;99.90;;;;;;5047722;28;20903;-85
2023/02/09 05:40:03;;;;;;;25.10;15.00;;;-2.50;99.90;;;;;;5026837;28;20191;-85
2023/02/09 05:42:29;;;;;;;25.55;16.00;;;-3.00;99.90;;;;;;5050307;28;20251;-86
2023/02/09 05:44:54;;;;;;;26.27;16.17;;;-3.00;99.90;;;;;;5026014;28;20179;-86
2023/02/09 05:47:21;;;;;;;28.53;16.10;;;-2.50;99.90;;;;;;5028897;28;20205;-86
2023/02/09 05:49:47;;;;;;;25.98;16.58;;;-2.90;99.90;;;;;;5030019;28;20183;-86
2023/02/09 05:52:15;;;;;;;29.65;19.48;;;-2.50;99.90;;;;;;5030938;28;20206;-87
2023/02/09 05:54:41;;;;;;;28.02;17.75;;;-2.70;99.90;;;;;;5034347;28;20235;-86
2023/02/09 05:57:07;;;;;;;27.83;17.30;;;-2.50;99.90;;;;;;5029580;28;20186;-87
2023/02/09 05:59:32;;;;;;;28.92;19.25;;;-3.10;99.90;;;;;;5032831;28;20273;-86
2023/02/09 06:01:58;;;;;;;27.57;16.60;;;-3.10;99.90;;;;;;5026805;28;20293;-85
2023/02/09 06:04:25;;;;;;;26.40;16.67;;;-2.90;99.90;;;;;;5030073;28;20183;-86
2023/02/09 06:06:50;;;;;;;26.30;16.17;;;-2.90;99.90;;;;;;5027063;28;20201;-87
2023/02/09 06:09:16;;;;;;;26.47;17.23;;;-2.90;99.90;;;;;;5023448;28;20224;-86
2023/02/09 06:11:41;;;;;;;29.17;18.63;;;-2.90;99.90;;;;;;5028704;28;20213;-87
2023/02/09 06:14:07;;;;;;;24.53;16.17;;;-3.00;99.90;;;;;;5024210;28;20177;-87
2023/02/09 06:16:33;;;;;;;28.57;17.77;;;-3.20;99.90;;;;;;5040924;28;20198;-86
2023/02/09 06:18:58;;;;;;;26.07;15.63;;;-2.80;99.90;;;;;;5031369;28;20202;-87
2023/02/09 06:21:24;;;;;;;28.17;18.17;;;-2.40;99.90;;;;;;5025013;28;20196;-87
2023/02/09 06:23:49;;;;;;;28.60;17.30;;;-2.80;99.90;;;;;;5045271;28;20186;-87
2023/02/09 06:26:16;;;;;;;26.00;17.60;;;-2.80;99.90;;;;;;5030299;28;20639;-87
2023/02/09 06:28:42;;;;;;;26.92;17.52;;;-3.00;99.90;;;;;;5029384;28;20437;-88
2023/02/09 06:31:08;;;;;;;24.87;16.63;;;-3.00;99.90;;;;;;5028947;28;20206;-87
2023/02/09 06:33:35;;;;;;;26.98;18.33;;;-2.70;99.90;;;;;;5034590;28;20585;-86
2023/02/09 06:36:02;;;;;;;29.13;18.45;;;-2.90;99.90;;;;;;5049977;28;20187;-87
2023/02/09 06:38:30;;;;;;;25.25;17.23;;;-2.90;99.90;;;;;;5027282;28;20175;-87
2023/02/09 06:40:56;;;;;;;25.67;16.85;;;-2.70;99.90;;;;;;5039989;28;20201;-87
2023/02/09 06:43:21;;;;;;;29.57;18.10;;;-2.10;99.90;;;;;;5032448;28;20591;-86
2023/02/09 06:45:47;;;;;;;23.83;16.77;;;-3.00;99.90;;;;;;5031292;28;20201;-87
2023/02/09 06:48:12;;;;;;;28.23;17.90;;;-3.00;99.90;;;;;;5050889;28;20187;-87
2023/02/09 06:50:38;;;;;;;27.37;18.07;;;-3.00;99.90;;;;;;5032493;28;20277;-88
2023/02/09 06:53:04;;;;;;;25.60;17.57;;;-2.60;99.90;;;;;;5032011;28;20230;-87
2023/02/09 06:55:30;;;;;;;30.25;17.60;;;-2.80;99.90;;;;;;5038140;28;20214;-86
2023/02/09 06:57:56;;;;;;;31.00;18.88;;;-2.90;99.90;;;;;;5035132;28;20182;-87
2023/02/09 07:00:22;;;;;;;29.77;17.93;;;-2.90;99.90;;;;;;5033270;28;20185;-86
2023/02/09 07:02:48;;;;;;;26.27;17.25;;;-2.80;99.90;;;;;;5030978;28;20663;-86
2023/02/09 07:05:15;;;;;;;31.60;20.10;;;-2.80;99.90;;;;;;5030878;28;20181;-87
2023/02/09 07:07:42;;;;;;;26.38;17.27;;;-2.80;99.90;;;;;;5027573;28;20187;-87
2023/02/09 07:10:09;;;;;;;27.77;18.10;;;-2.80;99.90;;;;;;5032444;28;20192;-88
2023/02/09 07:12:35;;;;;;;26.65;18.17;;;-3.00;99.90;;;;;;5035030;28;20202;-86
2023/02/09 07:15:00;;;;;;;25.83;16.03;;;-2.80;99.90;;;;;;5024326;28;20181;-86
2023/02/09 07:17:30;;;;;;;27.07;17.67;;;-2.80;99.90;;;;;;5039294;28;20210;-86
2023/02/09 07:19:56;;;;;;;32.75;20.38;;;-2.80;99.90;;;;;;5032020;28;20197;-85
2023/02/09 07:22:22;;;;;;;28.50;18.65;;;-2.70;99.90;;;;;;5033162;28;20207;-86
2023/02/09 07:24:48;;;;;;;32.38;17.67;;;-2.60;99.90;;;;;;5034586;28;20533;-88
2023/02/09 07:27:14;;;;;;;30.10;18.92;;;-2.80;99.90;;;;;;5031402;28;20190;-87
2023/02/09 07:29:40;;;;;;;29.63;19.17;;;-2.20;99.90;;;;;;5031015;28;20231;-88
2023/02/09 07:32:06;;;;;;;30.17;19.70;;;-2.90;99.90;;;;;;5028833;28;20300;-86
2023/02/09 07:34:32;;;;;;;27.08;18.17;;;-2.80;99.90;;;;;;5030650;28;20177;-87
2023/02/09 07:36:58;;;;;;;26.63;16.70;;;-2.80;99.90;;;;;;5031583;28;20194;-86
2023/02/09 07:39:23;;;;;;;27.00;18.10;;;-2.70;99.90;;;;;;5034387;28;20178;-87
2023/02/09 07:41:49;;;;;;;27.40;18.73;;;-2.50;99.90;;;;;;5033033;28;20234;-89
2023/02/09 07:44:14;;;;;;;30.60;20.77;;;-2.20;99.90;;;;;;5035669;28;20277;-88
2023/02/09 07:46:40;;;;;;;29.07;20.17;;;-2.40;99.90;;;;;;5034505;28;20198;-86
2023/02/09 07:49:06;;;;;;;31.83;20.10;;;-2.50;99.90;;;;;;5033303;28;20184;-86
2023/02/09 07:51:31;;;;;;;31.63;20.20;;;-1.90;99.90;;;;;;5026117;28;20214;-88
2023/02/09 07:53:58;;;;;;;33.93;19.80;;;-2.30;99.90;;;;;;5028330;28;20187;-87
2023/02/09 07:56:25;;;;;;;31.10;21.17;;;-2.20;99.90;;;;;;5032821;28;20419;-87
2023/02/09 07:58:51;;;;;;;30.00;19.80;;;-2.20;99.90;;;;;;5030515;28;20215;-86
2023/02/09 08:01:18;;;;;;;31.33;20.40;;;-2.20;99.90;;;;;;5032933;28;20299;-87
2023/02/09 08:03:46;;;;;;;32.60;20.50;;;-2.20;99.90;;;;;;5030068;28;20619;-87
2023/02/09 08:06:18;;;;;;;33.63;19.67;;;-1.80;99.90;;;;;;5032286;28;20717;-86
2023/02/09 08:08:45;;;;;;;28.13;18.60;;;-1.60;99.90;;;;;;5030663;28;20217;-87
2023/02/09 08:11:11;;;;;;;33.65;22.95;;;-1.70;99.90;;;;;;5028628;28;20639;-87
2023/02/09 08:13:39;;;;;;;35.03;22.77;;;-1.70;99.90;;;;;;5034893;28;20670;-87
2023/02/09 08:16:07;;;;;;;36.30;21.00;;;-1.60;99.90;;;;;;5035596;28;20646;-86
2023/02/09 08:18:41;;;;;;;33.20;22.23;;;-2.60;99.90;;;;;;5030925;28;20181;-86
2023/02/09 08:21:11;;;;;;;31.23;20.67;;;-1.60;99.90;;;;;;5031275;28;20297;-87
2023/02/09 08:23:39;;;;;;;30.77;20.67;;;-1.40;99.90;;;;;;5031089;28;20186;-87
2023/02/09 08:26:08;;;;;;;33.17;21.55;;;-1.30;99.90;;;;;;5032922;28;20262;-88
2023/02/09 08:28:36;;;;;;;29.75;20.45;;;-1.20;99.90;;;;;;5023974;28;20257;-87
2023/02/09 08:31:01;;;;;;;29.33;19.02;;;-0.50;99.90;;;;;;5027310;28;20197;-87
2023/02/09 08:33:27;;;;;;;32.97;21.17;;;-0.80;99.90;;;;;;5037252;28;20582;-85
2023/02/09 08:35:53;;;;;;;33.97;20.25;;;-0.50;99.90;;;;;;5027780;28;20189;-88
2023/02/09 08:38:19;;;;;;;30.35;20.88;;;-0.90;99.90;;;;;;5033278;28;20186;-87
2023/02/09 08:40:45;;;;;;;32.10;20.57;;;-0.90;99.90;;;;;;5028406;28;20623;-87
2023/02/09 08:43:12;;;;;;;30.40;20.00;;;-0.60;99.90;;;;;;5033366;28;20188;-87
2023/02/09 08:45:39;;;;;;;34.95;19.92;;;-0.50;99.90;;;;;;5049644;28;20185;-88
2023/02/09 08:48:08;;;;;;;32.55;19.98;;;-0.50;99.90;;;;;;5049257;28;20758;-87
2023/02/09 08:50:34;;;;;;;28.05;19.25;;;0.00;99.90;;;;;;5032188;28;20237;-87
2023/02/09 08:53:01;;;;;;;33.30;21.15;;;-0.80;99.90;;;;;;5027450;28;20471;-87
2023/02/09 08:55:28;;;;;;;32.40;21.50;;;0.30;99.90;;;;;;5034081;28;20178;-88
2023/02/09 08:57:53;;;;;;;35.03;21.33;;;-0.10;99.90;;;;;;5034554;28;20178;-88
2023/02/09 09:00:19;;;;;;;40.20;20.67;;;-0.10;99.90;;;;;;5035341;28;20276;-88
2023/02/09 09:02:44;;;;;;;27.83;19.87;;;0.00;99.90;;;;;;5033871;28;20190;-86
2023/02/09 09:05:10;;;;;;;29.93;20.87;;;0.60;99.90;;;;;;5031130;28;20436;-88
2023/02/09 09:07:36;;;;;;;33.30;21.60;;;0.70;99.90;;;;;;5030548;28;20661;-88
2023/02/09 09:10:02;;;;;;;29.43;20.00;;;1.00;99.90;;;;;;5029754;28;20182;-87
2023/02/09 09:12:29;;;;;;;30.27;19.38;;;1.30;99.90;;;;;;5032000;28;20214;-87
2023/02/09 09:14:54;;;;;;;26.58;21.38;;;2.60;99.90;;;;;;5033766;28;20179;-87
2023/02/09 09:17:20;;;;;;;28.83;20.50;;;4.50;96.20;;;;;;5030074;28;20207;-88
2023/02/09 09:19:45;;;;;;;30.20;19.87;;;4.70;93.50;;;;;;5028787;28;20181;-88
2023/02/09 09:22:11;;;;;;;24.90;19.50;;;5.00;92.50;;;;;;5032026;28;20228;-86
2023/02/09 09:24:39;;;;;;;26.70;20.83;;;4.80;91.90;;;;;;5025311;28;20184;-88
2023/02/09 09:27:06;;;;;;;26.88;20.15;;;4.60;92.00;;;;;;5028909;28;20208;-86
2023/02/09 09:29:33;;;;;;;27.45;20.73;;;5.90;91.20;;;;;;5028667;28;20196;-88
2023/02/09 09:31:59;;;;;;;26.95;19.90;;;6.00;89.20;;;;;;5030971;28;20202;-87
2023/02/09 09:34:25;;;;;;;27.83;19.98;;;5.60;86.20;;;;;;5032975;28;20174;-87
2023/02/09 09:36:50;;;;;;;27.03;19.93;;;6.70;85.80;;;;;;5026671;28;20202;-87
2023/02/09 09:39:17;;;;;;;26.57;20.47;;;7.00;83.40;;;;;;5030672;28;20473;-89
2023/02/09 09:41:47;;;;;;;24.80;19.98;;;7.70;83.60;;;;;;5027723;28;20276;-89
2023/02/09 09:44:20;;;;;;;27.38;21.10;;;7.70;80.60;;;;;;5030839;28;20177;-87
2023/02/09 09:46:49;;;;;;;24.70;21.20;;;7.90;77.50;;;;;;5046837;28;20199;-87
2023/02/09 09:49:23;;;;;;;27.67;20.52;;;7.50;77.90;;;;;;5028725;28;20264;-87
2023/02/09 09:52:01;;;;;;;23.05;19.73;;;7.50;78.10;;;;;;5032202;28;20231;-86
2023/02/09 09:54:30;;;;;;;26.23;21.08;;;8.10;79.10;;;;;;5027493;28;20293;-87
2023/02/09 09:56:56;;;;;;;26.90;20.85;;;7.30;77.80;;;;;;5045356;28;20178;-87
2023/02/09 09:59:27;;;;;;;28.93;20.80;;;7.20;79.90;;;;;;5028367;28;20257;-86
2023/02/09 10:01:54;;;;;;;28.98;21.58;;;7.40;80.50;;;;;;5034903;28;20233;-86
2023/02/09 10:04:20;;;;;;;28.27;21.80;;;6.50;80.20;;;;;;5026692;28;20649;-86
2023/02/09 10:06:51;;;;;;;29.83;21.33;;;6.20;82.20;;;;;;5026621;28;20192;-85
2023/02/09 10:09:39;;;;;;;29.15;20.98;;;6.70;84.00;;;;;;5025240;28;20197;-87
2023/02/09 10:12:21;;;;;;;25.27;20.52;;;5.90;83.10;;;;;;5029203;28;20251;-86
2023/02/09 10:14:47;;;;;;;28.23;21.38;;;6.60;82.80;;;;;;5029704;28;20201;-85
2023/02/09 10:17:12;;;;;;;28.07;19.60;;;6.70;81.50;;;;;;5029060;28;20182;-86
2023/02/09 10:19:38;;;;;;;29.43;20.87;;;7.40;81.40;;;;;;5028529;28;20189;-86
2023/02/09 10:22:09;;;;;;;33.23;20.23;;;7.60;80.30;;;;;;5027279;28;20205;-86
2023/02/09 10:24:38;;;;;;;29.65;20.33;;;6.80;79.30;;;;;;5031200;28;20186;-86
2023/02/09 10:27:04;;;;;;;27.58;20.73;;;6.80;79.40;;;;;;5029458;28;20263;-86
2023/02/09 10:29:30;;;;;;;30.53;22.57;;;7.30;79.80;;;;;;5031396;28;20217;-87
2023/02/09 10:32:04;;;;;;;26.30;20.30;;;6.80;79.00;;;;;;5029104;28;20221;-87
2023/02/09 10:34:42;;;;;;;31.33;21.90;;;6.90;80.40;;;;;;5030104;28;20485;-86
2023/02/09 10:37:16;;;;;;;24.98;20.23;;;7.10;81.90;;;;;;5032500;28;20265;-87
2023/02/09 10:39:42;;;;;;;25.08;18.25;;;7.10;80.70;;;;;;5024638;28;20192;-87
2023/02/09 10:42:24;;;;;;;25.07;19.50;;;7.20;79.60;;;;;;5032333;28;20201;-88
2023/02/09 10:44:53;;;;;;;25.92;18.98;;;7.10;79.00;;;;;;5029028;28;20677;-88
2023/02/09 10:47:18;;;;;;;24.83;17.95;;;8.00;77.50;;;;;;5029965;28;20202;-87
2023/02/09 10:49:54;;;;;;;22.97;17.73;;;8.20;76.00;;;;;;5020364;28;20194;-86
2023/02/09 10:52:22;;;;;;;25.08;18.20;;;9.10;72.30;;;;;;5027128;28;20288;-86
2023/02/09 10:54:55;;;;;;;24.05;17.33;;;9.50;73.30;;;;;;5029651;28;20182;-87
2023/02/09 10:57:40;;;;;;;25.67;20.00;;;9.20;74.20;;;;;;5026150;28;20186;-86
2023/02/09 11:00:14;;;;;;;22.85;18.38;;;9.50;70.30;;;;;;5025707;28;20199;-86
2023/02/09 11:02:48;;;;;;;24.23;18.60;;;9.70;70.10;;;;;;5029675;28;20731;-86
2023/02/09 11:05:20;;;;;;;23.65;17.02;;;9.50;67.30;;;;;;5025924;28;20190;-86
2023/02/09 11:08:17;;;;;;;25.17;19.02;;;9.30;66.50;;;;;;5043216;28;20196;-88
2023/02/09 11:10:59;;;;;;;24.35;18.10;;;9.10;65.40;;;;;;5041546;28;20206;-86
2023/02/09 11:13:25;;;;;;;21.92;17.02;;;9.10;66.90;;;;;;5039192;28;20218;-87
2023/02/09 11:16:10;;;;;;;24.50;16.88;;;9.50;66.00;;;;;;5027481;28;20214;-87
2023/02/09 11:18:37;;;;;;;22.58;16.95;;;9.60;63.60;;;;;;5032037;28;20231;-86
2023/02/09 11:21:12;;;;;;;20.15;16.80;;;11.60;60.40;;;;;;5027087;28;20198;-87
2023/02/09 11:23:46;;;;;;;21.83;17.63;;;10.90;58.40;;;;;;5028949;28;20642;-87
2023/02/09 11:26:42;;;;;;;21.10;16.98;;;11.10;58.20;;;;;;5028348;28;20687;-87
2023/02/09 11:29:31;;;;;;;21.65;18.23;;;10.30;56.30;;;;;;5025340;28;20602;-86
2023/02/09 11:32:42;;;;;;;24.80;19.92;;;11.50;57.10;;;;;;5020948;28;20222;-87
2023/02/09 11:35:15;;;;;;;22.95;18.25;;;11.20;56.60;;;;;;4970871;28;20234;-86
2023/02/09 11:37:50;;;;;;;21.73;17.02;;;10.80;56.60;;;;;;4950791;28;20209;-87
2023/02/09 11:40:28;;;;;;;23.63;19.27;;;10.70;57.50;;;;;;5008568;28;20357;-87
2023/02/09 11:43:00;;;;;;;22.40;18.75;;;10.60;58.40;;;;;;5030778;28;20193;-86
2023/02/09 11:45:32;;;;;;;28.83;18.42;;;10.00;58.90;;;;;;5035656;28;20263;-87
2023/02/09 11:48:24;;;;;;;20.73;17.15;;;10.80;59.00;;;;;;5032773;28;20187;-86
2023/02/09 11:50:59;;;;;;;26.08;18.88;;;9.10;59.90;;;;;;5036497;28;20235;-87
2023/02/09 11:53:34;;;;;;;23.35;17.67;;;9.30;62.80;;;;;;5031914;28;20206;-87
2023/02/09 11:56:03;;;;;;;23.38;17.83;;;10.30;62.00;;;;;;5051262;28;20185;-86
2023/02/09 11:58:43;;;;;;;21.20;16.95;;;9.90;60.50;;;;;;5031007;28;20187;-86
2023/02/09 12:01:38;;;;;;;19.35;16.85;;;10.00;60.20;;;;;;5027307;28;20202;-86
2023/02/09 12:04:12;;;;;;;27.35;18.67;;;9.40;61.20;;;;;;5041047;28;20195;-85
2023/02/09 12:06:43;;;;;;;22.55;18.13;;;9.20;62.80;;;;;;5040544;28;20190;-84
2023/02/09 12:09:46;;;;;;;21.45;17.23;;;8.50;65.00;;;;;;5037590;28;20177;-85
2023/02/09 12:12:27;;;;;;;22.65;17.08;;;8.70;65.60;;;;;;5033716;28;20674;-85
2023/02/09 12:15:07;;;;;;;24.50;17.50;;;8.00;65.90;;;;;;5027988;28;20186;-87
2023/02/09 12:17:42;;;;;;;25.55;16.80;;;8.30;65.80;;;;;;5031357;28;20189;-86
2023/02/09 12:20:25;;;;;;;28.92;18.45;;;8.70;68.30;;;;;;5030613;28;20174;-87
2023/02/09 12:23:00;;;;;;;23.83;17.70;;;8.30;68.50;;;;;;5027327;28;20280;-86
2023/02/09 12:25:51;;;;;;;24.38;18.48;;;8.40;67.40;;;;;;5036349;28;20234;-86
2023/02/09 12:28:23;;;;;;;28.23;20.20;;;7.80;68.00;;;;;;5032029;28;21146;-86
2023/02/09 12:30:48;;;;;;;24.48;18.48;;;8.00;70.50;;;;;;5029261;28;20202;-87
2023/02/09 12:33:18;;;;;;;22.40;17.00;;;7.90;71.20;;;;;;5025974;28;20296;-87
2023/02/09 12:36:00;;;;;;;24.13;17.10;;;8.00;69.40;;;;;;5030845;28;20267;-86
2023/02/09 12:38:59;;;;;;;23.85;18.13;;;8.10;70.30;;;;;;5032196;28;20185;-86
2023/02/09 12:41:33;;;;;;;23.60;17.55;;;7.80;69.90;;;;;;4992473;28;20235;-86
2023/02/09 12:44:08;;;;;;;22.90;17.67;;;7.80;70.60;;;;;;5031623;28;20226;-87
2023/02/09 12:46:43;;;;;;;23.90;18.02;;;7.60;70.70;;;;;;5027964;28;20197;-86
2023/02/09 12:49:18;;;;;;;23.42;17.50;;;7.90;71.20;;;;;;5032276;28;20185;-86
2023/02/09 12:51:53;;;;;;;24.50;17.83;;;8.00;71.50;;;;;;5027698;28;20224;-86
2023/02/09 12:54:43;;;;;;;25.52;17.80;;;7.50;70.80;;;;;;5029918;28;20184;-87